Montreal, Missouri
Current Conditions -  °F | °C
As of 12:55 PM on Sunday 23 Nov 2014 (Local Time) from KH21 Reporting Station
Drizzle Drizzle  
Wind Chill: 12°   Ceiling: 700
Heat Index: 12°   Visibility: 3mi
Dew Point: 12°   Wind: 6mph
Humidity: 100%   Direction: 120°ESE
Pressure: 29.4"   Gusts: NA
Location:  37.97°N, 92.59°W
Report Text: KH21 231855Z AUTO 12005KT 3SM -DZ OVC007 12/12 A2940 RMK AO2
Loading
Personal Weather Stations






























Interactive Weather Map New forecast layout! Learn more

10-Day Weather Forecast

Advertisements
Track Severe Weather on mobile